Terminal Aerodrome Forecast
Issued by NWS Sioux Falls, SD

Home | Current Version | Previous Version | Text Only | Print | Product List | Glossary On
Versions: 1 2 3 4 5 6 7 8 9 10 11 12 13 14 15
111
FTUS43 KFSD 172335
TAFHON
TAF
KHON 172335Z 1800/1824 08009KT P6SM SCT150 SCT250
     FM180700 05006KT P6SM -SN OVC045
     FM181000 01007KT 5SM -SN OVC015
     FM181200 34009KT 1 1/2SM -SN OVC008
     FM181600 34009KT 3SM -SNRA OVC008
     FM181900 33010KT P6SM OVC008=

USA.gov is the U.S. government's official web portal to all federal, state and local government web resources and services.